^^
Saratoga-Weather Station Historical Data
Daily Summary for April 17, 2021 Units:  English    Metric   Both
Daily Weekly Monthly Yearly Custom
  High: Low: Average:
Temperature: 64.4 °F 51.4 °F 57.7 °F
Dew Point: 55.9 °F 49.6 °F 53.1 °F
Humidity: 94% 70% 85%
Wind Speed: 10.1mph 0mph 2.8mph
Wind Gust: 12mph - -
Wind- - WNW
Pressure: 30.2 in 30.1 in -
Precipitation: 0.02 in    
Historical Graphs
 
 
Tabular Data for April 17, 2021
Time Temperature Dew Point Pressure Wind Wind Speed Wind Gust Humidity Rainfall Rate (Hourly) solar
00:00 56.7 °F 52.5 °F 30.1 in West 2.9 mph 3 mph 86% 0 in 0 W/m2
00:05 56.5 °F 52.3 °F 30.1 in WNW 2 mph 3 mph 86% 0 in 0 W/m2
00:10 56.5 °F 52.3 °F 30.1 in West 2.9 mph 4 mph 86% 0 in 0 W/m2
00:15 56.3 °F 52.2 °F 30.1 in West 2 mph 4 mph 86% 0 in 0 W/m2
00:20 56.1 °F 52.3 °F 30.1 in West 4 mph 6 mph 87% 0 in 0 W/m2
00:25 56.1 °F 52 °F 30.1 in West 2.9 mph 6 mph 86% 0 in 0 W/m2
00:30 56.3 °F 52.2 °F 30.1 in WNW 2.9 mph 5 mph 86% 0 in 0 W/m2
00:35 56.3 °F 52.2 °F 30.1 in West 2 mph 7 mph 86% 0 in 0 W/m2
00:40 56.5 °F 52 °F 30.1 in NW 4 mph 4 mph 85% 0 in 0 W/m2
00:45 56.5 °F 52 °F 30.1 in West 2 mph 8 mph 85% 0 in 0 W/m2
00:50 56.3 °F 51.8 °F 30.1 in West 2 mph 6 mph 85% 0 in 0 W/m2
00:55 56.1 °F 51.6 °F 30.1 in West 4 mph 8 mph 85% 0 in 0 W/m2
01:00 55.9 °F 51.8 °F 30.1 in West 0.9 mph 3 mph 86% 0 in 0 W/m2
01:05 55.8 °F 51.6 °F 30.1 in West 2 mph 7 mph 86% 0 in 0 W/m2
01:10 55.8 °F 52 °F 30.1 in WNW 0.9 mph 5 mph 87% 0 in 0 W/m2
01:15 55.8 °F 52 °F 30.1 in WNW 4 mph 6 mph 87% 0 in 0 W/m2
01:20 55.8 °F 52 °F 30.1 in WNW 4 mph 8 mph 87% 0 in 0 W/m2
01:25 55.8 °F 52.3 °F 30.1 in West 2.9 mph 4 mph 88% 0 in 0 W/m2
01:30 55.8 °F 52.3 °F 30.1 in West 0.9 mph 3 mph 88% 0 in 0 W/m2
01:35 55.8 °F 52.3 °F 30.1 in West 2 mph 3 mph 88% 0 in 0 W/m2
01:40 55.8 °F 52.3 °F 30.1 in WNW 2.9 mph 8 mph 88% 0 in 0 W/m2
01:45 55.8 °F 52.3 °F 30.1 in WNW 2 mph 6 mph 88% 0 in 0 W/m2
01:50 55.8 °F 52.3 °F 30.1 in West 2.9 mph 8 mph 88% 0 in 0 W/m2
01:55 55.6 °F 52.3 °F 30.1 in WNW 2 mph 7 mph 89% 0 in 0 W/m2
02:00 55.6 °F 52.3 °F 30.1 in West 2.9 mph 8 mph 89% 0 in 0 W/m2
02:05 55.6 °F 52.3 °F 30.1 in WNW 2 mph 4 mph 89% 0 in 0 W/m2
02:10 55.6 °F 52.3 °F 30.1 in West 2 mph 8 mph 89% 0 in 0 W/m2
02:15 55.6 °F 52.3 °F 30.1 in West 6 mph 8 mph 89% 0 in 0 W/m2
02:20 55.6 °F 52.3 °F 30.1 in WNW 4 mph 8 mph 89% 0 in 0 W/m2
02:25 55.4 °F 52.2 °F 30.1 in West 6 mph 7 mph 89% 0 in 0 W/m2
02:30 55.2 °F 52 °F 30.1 in West 4 mph 5 mph 89% 0 in 0 W/m2
02:35 55.2 °F 52.3 °F 30.1 in West 6.9 mph 7 mph 90% 0 in 0 W/m2
02:40 55.2 °F 52.3 °F 30.1 in WNW 4.9 mph 6 mph 90% 0 in 0 W/m2
02:45 55 °F 52.2 °F 30.1 in SW 2.9 mph 6 mph 90% 0 in 0 W/m2
02:50 55 °F 52.2 °F 30.1 in West 6 mph 6 mph 90% 0 in 0 W/m2
02:55 55 °F 52.2 °F 30.1 in West 2 mph 6 mph 90% 0 in 0 W/m2
03:00 55 °F 52.2 °F 30.1 in WNW 2.9 mph 6 mph 90% 0 in 0 W/m2
03:05 54.9 °F 52 °F 30.1 in West 2 mph 4 mph 90% 0 in 0 W/m2
03:10 54.9 °F 52 °F 30.1 in WNW 2.9 mph 4 mph 90% 0 in 0 W/m2
03:15 54.7 °F 52.2 °F 30.1 in WNW 4 mph 5 mph 91% 0 in 0 W/m2
03:20 54.7 °F 52.2 °F 30.1 in West 4 mph 7 mph 91% 0 in 0 W/m2
03:25 54.7 °F 52.2 °F 30.1 in West 2 mph 4 mph 91% 0 in 0 W/m2
03:30 54.7 °F 52.2 °F 30.1 in WNW 2 mph 7 mph 91% 0 in 0 W/m2
03:35 54.7 °F 52.2 °F 30.1 in West 2 mph 3 mph 91% 0 in 0 W/m2
03:40 54.5 °F 52 °F 30.1 in NW 2.9 mph 7 mph 91% 0 in 0 W/m2
03:45 54.3 °F 51.8 °F 30.1 in West 0.9 mph 4 mph 91% 0 in 0 W/m2
03:50 54.3 °F 51.8 °F 30.1 in WNW 0.9 mph 4 mph 91% 0 in 0 W/m2
03:55 54.1 °F 51.6 °F 30.1 in West 2 mph 2 mph 91% 0 in 0 W/m2
04:00 54.1 °F 51.6 °F 30.1 in West 0.9 mph 6 mph 91% 0 in 0 W/m2
04:05 54 °F 51.4 °F 30.1 in West 2.9 mph 4 mph 91% 0 in 0 W/m2
04:10 54 °F 51.6 °F 30.1 in West 4 mph 6 mph 92% 0 in 0 W/m2
04:15 54 °F 51.6 °F 30.1 in WNW 2 mph 6 mph 92% 0 in 0 W/m2
04:21 54 °F 51.6 °F 30.1 in SW 4 mph 5 mph 92% 0 in 0 W/m2
04:26 54 °F 51.6 °F 30.1 in West 6.9 mph 7 mph 92% 0 in 0 W/m2
04:31 54 °F 51.4 °F 30.1 in WSW 4 mph 6 mph 91% 0 in 0 W/m2
04:36 53.8 °F 51.3 °F 30.1 in NW 2.9 mph 7 mph 91% 0 in 0 W/m2
04:41 53.8 °F 51.3 °F 30.1 in WSW 2.9 mph 5 mph 91% 0 in 0 W/m2
04:46 53.8 °F 51.4 °F 30.1 in West 2.9 mph 4 mph 92% 0 in 0 W/m2
04:51 53.6 °F 51.3 °F 30.1 in Calm   3 mph 92% 0 in 0 W/m2
04:56 53.6 °F 51.3 °F 30.1 in WNW 0.9 mph 3 mph 92% 0 in 0 W/m2
05:01 53.4 °F 51.1 °F 30.1 in WNW 0.9 mph 2 mph 92% 0 in 0 W/m2
05:06 53.4 °F 50.9 °F 30.1 in Calm     91% 0 in 0 W/m2
05:11 53.2 °F 50.9 °F 30.1 in NNW 2 mph 6 mph 92% 0 in 0 W/m2
05:16 53.2 °F 50.9 °F 30.1 in Calm   1 mph 92% 0 in 0 W/m2
05:21 53.1 °F 50.5 °F 30.1 in Calm   4 mph 91% 0 in 0 W/m2
05:26 52.9 °F 50.5 °F 30.1 in Calm     92% 0 in 0 W/m2
05:31 52.7 °F 50.4 °F 30.1 in Calm     92% 0 in 0 W/m2
05:36 52.5 °F 50.2 °F 30.1 in NNW 0.9 mph 1 mph 92% 0 in 0 W/m2
05:41 52.3 °F 50 °F 30.1 in WNW 0.9 mph 3 mph 92% 0 in 0 W/m2
05:46 52.3 °F 50 °F 30.1 in WNW 2.9 mph 3 mph 92% 0 in 0 W/m2
05:51 52.3 °F 50.4 °F 30.1 in WNW 0.9 mph 1 mph 93% 0 in 0 W/m2
05:56 52.3 °F 50.4 °F 30.1 in NNW 0.9 mph 2 mph 93% 0 in 0 W/m2
06:01 52.3 °F 50.4 °F 30.1 in Calm   1 mph 93% 0 in 0 W/m2
06:06 52.3 °F 50.4 °F 30.1 in NNW 0.9 mph 2 mph 93% 0 in 0 W/m2
06:11 52.2 °F 50.2 °F 30.1 in Calm   3 mph 93% 0 in 0 W/m2
06:16 52.2 °F 50.2 °F 30.1 in Calm   4 mph 93% 0 in 0 W/m2
06:21 52 °F 50 °F 30.1 in NNW 2.9 mph 5 mph 93% 0 in 0 W/m2
06:26 52 °F 50 °F 30.1 in WNW 2 mph 3 mph 93% 0 in 0 W/m2
06:31 52 °F 50 °F 30.1 in North 4 mph 5 mph 93% 0 in 0 W/m2
06:36 51.8 °F 49.8 °F 30.1 in NW 2 mph 3 mph 93% 0 in 5 W/m2
06:41 51.6 °F 49.6 °F 30.1 in WNW 0.9 mph 4 mph 93% 0 in 7 W/m2
06:46 51.6 °F 50 °F 30.1 in WNW 2 mph 4 mph 94% 0 in 11 W/m2
06:51 51.6 °F 50 °F 30.1 in NW 0.9 mph 4 mph 94% 0 in 14 W/m2
06:56 51.6 °F 50 °F 30.1 in WNW 2 mph 4 mph 94% 0 in 14 W/m2
07:01 51.4 °F 49.8 °F 30.1 in West 2 mph 4 mph 94% 0 in 12 W/m2
07:06 51.4 °F 49.8 °F 30.1 in NW 0.9 mph 4 mph 94% 0 in 12 W/m2
07:11 51.4 °F 49.8 °F 30.1 in Calm   1 mph 94% 0 in 23 W/m2
07:16 51.4 °F 49.8 °F 30.1 in Calm   1 mph 94% 0 in 46 W/m2
07:21 51.4 °F 49.8 °F 30.1 in NW 2 mph 3 mph 94% 0 in 60 W/m2
07:26 51.4 °F 49.8 °F 30.1 in WNW 6 mph 6 mph 94% 0 in 70 W/m2
07:32 51.4 °F 49.8 °F 30.1 in West 2 mph 4 mph 94% 0 in 63 W/m2
07:37 51.4 °F 49.8 °F 30.1 in WNW 2 mph 7 mph 94% 0 in 91 W/m2
07:42 51.4 °F 49.8 °F 30.1 in NW 2 mph 4 mph 94% 0 in 107 W/m2
07:47 51.6 °F 50 °F 30.1 in WNW 0.9 mph 7 mph 94% 0 in 102 W/m2
07:52 51.8 °F 50.2 °F 30.1 in NW 0.9 mph 2 mph 94% 0 in 88 W/m2
07:57 52 °F 50.4 °F 30.1 in WNW 0.9 mph 4 mph 94% 0 in 95 W/m2
08:02 52 °F 50.4 °F 30.1 in NW 0.9 mph 5 mph 94% 0 in 97 W/m2
08:07 52 °F 50.4 °F 30.1 in WNW 2.9 mph 3 mph 94% 0 in 109 W/m2
08:12 52 °F 50 °F 30.1 in NW 2 mph 7 mph 93% 0 in 97 W/m2
08:17 52.2 °F 50.2 °F 30.1 in West 2.9 mph 4 mph 93% 0 in 95 W/m2
08:22 52.3 °F 50.7 °F 30.1 in WNW 2 mph 4 mph 94% 0 in 98 W/m2
08:27 52.3 °F 50.4 °F 30.1 in WNW 2 mph 5 mph 93% 0 in 107 W/m2
08:32 52.5 °F 50.5 °F 30.2 in WNW 2 mph 5 mph 93% 0 in 118 W/m2
08:37 52.5 °F 50.5 °F 30.2 in WNW 2 mph 3 mph 93% 0 in 141 W/m2
08:42 52.9 °F 50.5 °F 30.2 in NW 2.9 mph 7 mph 92% 0 in 137 W/m2
08:47 52.9 °F 50.5 °F 30.2 in West 2.9 mph 3 mph 92% 0 in 163 W/m2
08:52 53.1 °F 50.7 °F 30.2 in WNW 2.9 mph 7 mph 92% 0 in 81 W/m2
08:57 53.1 °F 50.7 °F 30.2 in West 4 mph 4 mph 92% 0 in 120 W/m2
09:02 53.1 °F 50.5 °F 30.2 in WNW 2.9 mph 7 mph 91% 0 in 155 W/m2
09:07 53.2 °F 50.7 °F 30.2 in NW 2.9 mph 7 mph 91% 0 in 139 W/m2
09:12 53.2 °F 50.7 °F 30.2 in WNW 2.9 mph 4 mph 91% 0 in 137 W/m2
09:17 53.4 °F 51.1 °F 30.2 in West 0.9 mph 7 mph 92% 0 in 139 W/m2
09:22 53.6 °F 51.1 °F 30.2 in WNW 4.9 mph 8 mph 91% 0 in 151 W/m2
09:27 53.6 °F 51.1 °F 30.2 in WNW 2.9 mph 6 mph 91% 0 in 213 W/m2
09:32 53.8 °F 50.9 °F 30.2 in NNW 2 mph 4 mph 90% 0 in 192 W/m2
09:37 54 °F 51.4 °F 30.2 in WNW 2 mph 4 mph 91% 0 in 155 W/m2
09:42 54 °F 51.4 °F 30.2 in SW 2.9 mph 6 mph 91% 0 in 202 W/m2
09:47 54.1 °F 51.3 °F 30.2 in WNW 4.9 mph 8 mph 90% 0 in 195 W/m2
09:52 54.1 °F 51.3 °F 30.2 in West 0.9 mph 3 mph 90% 0 in 214 W/m2
09:57 54.3 °F 51.4 °F 30.2 in NNW 2.9 mph 8 mph 90% 0 in 176 W/m2
10:02 54.3 °F 51.4 °F 30.2 in NW 4 mph 4 mph 90% 0 in 156 W/m2
10:07 54.7 °F 51.8 °F 30.2 in NW 8.9 mph 9 mph 90% 0 in 241 W/m2
10:12 54.7 °F 51.4 °F 30.2 in WNW 4 mph 7 mph 89% 0 in 304 W/m2
10:17 55 °F 51.8 °F 30.2 in NW 2.9 mph 4 mph 89% 0 in 202 W/m2
10:22 55.4 °F 52.2 °F 30.2 in West 2.9 mph 7 mph 89% 0 in 258 W/m2
10:27 55.6 °F 52.2 °F 30.2 in NNW 2 mph 6 mph 88% 0 in 265 W/m2
10:32 55.8 °F 52.3 °F 30.2 in Calm   3 mph 88% 0 in 330 W/m2
10:37 56.1 °F 52.7 °F 30.2 in SW 2 mph 4 mph 88% 0 in 318 W/m2
10:42 56.7 °F 52.9 °F 30.2 in WNW 2 mph 5 mph 87% 0 in 353 W/m2
10:47 56.8 °F 52.7 °F 30.2 in WNW 4.9 mph 8 mph 86% 0 in 299 W/m2
10:52 57 °F 52.9 °F 30.2 in NW 6 mph 6 mph 86% 0 in 265 W/m2
10:57 57.2 °F 53.1 °F 30.2 in West 2 mph 5 mph 86% 0 in 311 W/m2
11:02 57.6 °F 53.4 °F 30.2 in NNW 2.9 mph 4 mph 86% 0 in 318 W/m2
11:07 57.7 °F 53.2 °F 30.2 in NNW 2.9 mph 5 mph 85% 0 in 381 W/m2
11:12 57.9 °F 53.4 °F 30.2 in West 0.9 mph 6 mph 85% 0 in 371 W/m2
11:17 58.1 °F 53.2 °F 30.1 in WNW 2 mph 7 mph 84% 0 in 313 W/m2
11:22 58.3 °F 53.4 °F 30.1 in NW 2 mph 7 mph 84% 0 in 329 W/m2
11:27 58.6 °F 53.8 °F 30.1 in West 2.9 mph 6 mph 84% 0 in 473 W/m2
11:32 59.2 °F 54.3 °F 30.1 in West 2 mph 7 mph 84% 0 in 320 W/m2
11:37 59.2 °F 53.6 °F 30.1 in SW 2.9 mph 7 mph 82% 0 in 236 W/m2
11:42 59.2 °F 54 °F 30.1 in WNW 2.9 mph 4 mph 83% 0 in 478 W/m2
11:47 59.4 °F 53.8 °F 30.1 in SW 0.9 mph 8 mph 82% 0 in 592 W/m2
11:52 59.5 °F 54.3 °F 30.1 in WNW 2 mph 4 mph 83% 0 in 800 W/m2
11:57 60.1 °F 54.3 °F 30.1 in SW 6 mph 6 mph 81% 0 in 545 W/m2
12:02 60.4 °F 54.3 °F 30.1 in NW 4.9 mph 9 mph 80% 0 in 371 W/m2
12:07 60.6 °F 54.5 °F 30.1 in NW 2 mph 7 mph 80% 0 in 629 W/m2
12:12 61 °F 54.1 °F 30.1 in WNW 4 mph 8 mph 78% 0 in 504 W/m2
12:17 61.3 °F 54.1 °F 30.1 in NW 2.9 mph 10 mph 77% 0 in 819 W/m2
12:22 61.5 °F 54 °F 30.1 in WSW 2.9 mph 8 mph 76% 0 in 346 W/m2
12:27 61.7 °F 54.9 °F 30.1 in WSW 2 mph 5 mph 78% 0 in 450 W/m2
12:32 61.9 °F 54.3 °F 30.1 in WNW 2 mph 10 mph 76% 0 in 396 W/m2
12:37 61.9 °F 54.3 °F 30.1 in NW 2 mph 4 mph 76% 0 in 455 W/m2
12:42 62.1 °F 54.3 °F 30.1 in WSW 4.9 mph 10 mph 76% 0 in 216 W/m2
12:47 62.1 °F 54.3 °F 30.1 in West 4 mph 5 mph 76% 0 in 209 W/m2
12:52 61.5 °F 54 °F 30.1 in NNW 2.9 mph 4 mph 76% 0 in 132 W/m2
12:57 61.5 °F 54.3 °F 30.1 in West 2.9 mph 6 mph 77% 0 in 323 W/m2
13:02 61.7 °F 54.5 °F 30.1 in NW 2 mph 3 mph 77% 0 in 283 W/m2
13:07 62.1 °F 54.3 °F 30.1 in SW 2.9 mph 6 mph 76% 0 in 345 W/m2
13:12 62.2 °F 54.5 °F 30.1 in WSW 0.9 mph 7 mph 76% 0 in 274 W/m2
13:17 62.4 °F 54.7 °F 30.1 in WNW 2 mph 3 mph 76% 0 in 243 W/m2
13:22 62.4 °F 54 °F 30.1 in West 2 mph 7 mph 74% 0 in 297 W/m2
13:27 62.6 °F 53.8 °F 30.1 in West 2.9 mph 4 mph 73% 0 in 348 W/m2
13:32 63 °F 54.1 °F 30.1 in West 2.9 mph 6 mph 73% 0 in 320 W/m2
13:37 63.1 °F 54.3 °F 30.1 in Calm   3 mph 73% 0 in 469 W/m2
13:42 63.3 °F 54.1 °F 30.1 in NW 4 mph 8 mph 72% 0 in 439 W/m2
13:47 63.7 °F 54.1 °F 30.1 in WSW 2.9 mph 8 mph 71% 0 in 241 W/m2
13:52 63.3 °F 53.8 °F 30.1 in NW 2.9 mph 4 mph 71% 0 in 156 W/m2
13:57 63.1 °F 53.6 °F 30.1 in West 6.9 mph 7 mph 71% 0 in 114 W/m2
14:02 62.8 °F 53.6 °F 30.1 in SSW 2.9 mph 5 mph 72% 0 in 83 W/m2
14:07 62.4 °F 53.6 °F 30.1 in West 4 mph 4 mph 73% 0 in 63 W/m2
14:12 62.2 °F 53.4 °F 30.1 in West 2 mph 8 mph 73% 0 in 49 W/m2
14:17 61.9 °F 54.3 °F 30.1 in West 0.9 mph 3 mph 76% 0 in 70 W/m2
14:22 61.5 °F 54.3 °F 30.1 in West 2 mph 8 mph 77% 0 in 134 W/m2
14:27 61.3 °F 54.1 °F 30.1 in WNW 4 mph 6 mph 77% 0 in 169 W/m2
14:33 61.3 °F 54.5 °F 30.1 in West 2.9 mph 4 mph 78% 0 in 239 W/m2
14:38 61.5 °F 54.7 °F 30.1 in West 2 mph 4 mph 78% 0 in 250 W/m2
14:43 61.9 °F 54.7 °F 30.1 in WNW 2 mph 4 mph 77% 0 in 237 W/m2
14:48 62.1 °F 54.3 °F 30.1 in WSW 2 mph 4 mph 76% 0 in 255 W/m2
14:53 62.4 °F 54.3 °F 30.1 in West 2.9 mph 4 mph 75% 0 in 309 W/m2
14:58 62.8 °F 54.3 °F 30.1 in WNW 4 mph 4 mph 74% 0 in 227 W/m2
15:03 63 °F 54.1 °F 30.1 in WNW 2.9 mph 8 mph 73% 0 in 230 W/m2
15:08 63.1 °F 54.7 °F 30.1 in WNW 0.9 mph 2 mph 74% 0 in 306 W/m2
15:13 63.5 °F 54.7 °F 30.1 in NW 2.9 mph 8 mph 73% 0 in 251 W/m2
15:18 63.7 °F 54.9 °F 30.1 in West 6 mph 6 mph 73% 0 in 186 W/m2
15:23 63.5 °F 54.3 °F 30.1 in NW 6 mph 7 mph 72% 0 in 169 W/m2
15:28 63.5 °F 54.7 °F 30.1 in WSW 4 mph 7 mph 73% 0 in 188 W/m2
15:33 63.3 °F 54.5 °F 30.1 in NW 2 mph 6 mph 73% 0 in 153 W/m2
15:38 63.5 °F 55 °F 30.1 in WNW 6.9 mph 7 mph 74% 0 in 142 W/m2
15:43 63.3 °F 54.9 °F 30.1 in WSW 4 mph 7 mph 74% 0 in 151 W/m2
15:48 63.1 °F 54.7 °F 30.1 in NW 2 mph 4 mph 74% 0 in 214 W/m2
15:53 63.1 °F 54.7 °F 30.1 in West 2 mph 4 mph 74% 0 in 218 W/m2
15:58 63 °F 54.5 °F 30.1 in WSW 2 mph 4 mph 74% 0 in 243 W/m2
16:03 63 °F 54.9 °F 30.1 in WNW 2 mph 3 mph 75% 0 in 357 W/m2
16:08 63.3 °F 55.6 °F 30.1 in Calm   2 mph 76% 0 in 309 W/m2
16:13 63.9 °F 55.4 °F 30.1 in West 2 mph 8 mph 74% 0 in 285 W/m2
16:18 64 °F 55.2 °F 30.1 in WSW 2 mph 8 mph 73% 0 in 160 W/m2
16:23 64 °F 54.9 °F 30.1 in ENE 2 mph 4 mph 72% 0 in 139 W/m2
16:28 64.2 °F 54.7 °F 30.1 in WSW 4 mph 4 mph 71% 0 in 120 W/m2
16:33 64.2 °F 54.3 °F 30.1 in NW 0.9 mph 3 mph 70% 0 in 116 W/m2
16:38 64.4 °F 55.6 °F 30.1 in NW 0.9 mph 3 mph 73% 0 in 167 W/m2
16:43 64.2 °F 55 °F 30.1 in West 0.9 mph 4 mph 72% 0 in 142 W/m2
16:48 64.2 °F 55.8 °F 30.1 in West 0.9 mph 3 mph 74% 0 in 134 W/m2
16:53 64 °F 54.9 °F 30.1 in SW 4.9 mph 8 mph 72% 0 in 132 W/m2
16:58 63.9 °F 54.7 °F 30.1 in West 2.9 mph 7 mph 72% 0 in 125 W/m2
17:03 63.7 °F 54.9 °F 30.1 in NW 0.9 mph 8 mph 73% 0 in 102 W/m2
17:08 63.7 °F 55.9 °F 30.1 in NW 2 mph 2 mph 76% 0 in 113 W/m2
17:13 63.5 °F 55.4 °F 30.1 in WNW 0.9 mph 2 mph 75% 0 in 116 W/m2
17:18 63.7 °F 55.2 °F 30.1 in West 2 mph 3 mph 74% 0 in 102 W/m2
17:23 63.7 °F 54.9 °F 30.1 in West 0.9 mph 6 mph 73% 0 in 107 W/m2
17:28 63.7 °F 54.9 °F 30.1 in WNW 0.9 mph 3 mph 73% 0 in 91 W/m2
17:33 63.7 °F 54.9 °F 30.1 in WNW 2.9 mph 5 mph 73% 0 in 86 W/m2
17:38 63.9 °F 55 °F 30.1 in Calm   2 mph 73% 0 in 90 W/m2
17:43 63.9 °F 55.4 °F 30.1 in West 0.9 mph 2 mph 74% 0 in 90 W/m2
17:48 63.7 °F 54.9 °F 30.1 in Calm   3 mph 73% 0 in 72 W/m2
17:53 63.7 °F 54.9 °F 30.1 in WNW 0.9 mph 3 mph 73% 0 in 53 W/m2
17:58 63.7 °F 54.9 °F 30.1 in Calm   2 mph 73% 0 in 53 W/m2
18:03 63.7 °F 54.9 °F 30.1 in Calm   3 mph 73% 0 in 44 W/m2
18:08 63.7 °F 54.9 °F 30.1 in WNW 2 mph 4 mph 73% 0 in 42 W/m2
18:13 63.3 °F 54.5 °F 30.1 in WNW 4 mph 5 mph 73% 0 in 44 W/m2
18:18 63.3 °F 54.5 °F 30.1 in Calm   3 mph 73% 0 in 53 W/m2
18:23 63.1 °F 54.7 °F 30.1 in WSW 2.9 mph 5 mph 74% 0 in 58 W/m2
18:28 63 °F 54.1 °F 30.1 in WNW 4.9 mph 10 mph 73% 0 in 44 W/m2
18:33 62.8 °F 54.7 °F 30.1 in WNW 2.9 mph 5 mph 75% 0 in 83 W/m2
18:38 62.4 °F 54.7 °F 30.1 in WNW 0.9 mph 2 mph 76% 0 in 53 W/m2
18:43 62.2 °F 54.5 °F 30.1 in WSW 0.9 mph 6 mph 76% 0 in 65 W/m2
18:48 62.2 °F 54.5 °F 30.1 in WNW 0.9 mph 2 mph 76% 0 in 84 W/m2
18:53 62.2 °F 54.5 °F 30.1 in SSW 0.9 mph 4 mph 76% 0 in 102 W/m2
18:58 62.4 °F 55 °F 30.1 in WNW 2 mph 3 mph 77% 0 in 53 W/m2
19:03 62.4 °F 54.7 °F 30.1 in West 0.9 mph 4 mph 76% 0 in 40 W/m2
19:08 62.4 °F 54.3 °F 30.1 in WNW 6.9 mph 10 mph 75% 0 in 40 W/m2
19:13 62.4 °F 54.3 °F 30.1 in WNW 8.1 mph 10 mph 75% 0 in 49 W/m2
19:18 62.1 °F 54.3 °F 30.1 in WNW 10.1 mph 11 mph 76% 0 in 49 W/m2
19:23 61.7 °F 54.5 °F 30.1 in West 4 mph 6 mph 77% 0 in 62 W/m2
19:28 61.5 °F 54.7 °F 30.1 in West 6.9 mph 8 mph 78% 0 in 39 W/m2
19:33 61.2 °F 54.3 °F 30.1 in WNW 10.1 mph 10 mph 78% 0 in 33 W/m2
19:38 61 °F 54.7 °F 30.1 in West 6 mph 6 mph 80% 0 in 35 W/m2
19:43 60.4 °F 54.5 °F 30.1 in West 2 mph 7 mph 81% 0 in 25 W/m2
19:48 60.3 °F 54.7 °F 30.1 in NW 2.9 mph 8 mph 82% 0 in 16 W/m2
19:53 60.1 °F 54.9 °F 30.1 in West 6 mph 8 mph 83% 0 in 14 W/m2
19:58 59.7 °F 54.9 °F 30.1 in NW 2.9 mph 6 mph 84% 0 in 12 W/m2
20:03 59.7 °F 54.9 °F 30.1 in WNW 4 mph 11 mph 84% 0 in 12 W/m2
20:08 59.5 °F 55 °F 30.1 in West 6 mph 8 mph 85% 0 in 11 W/m2
20:13 59.4 °F 54.9 °F 30.1 in NW 2.9 mph 6 mph 85% 0 in 12 W/m2
20:18 59.4 °F 54.9 °F 30.1 in West 2 mph 5 mph 85% 0 in 9 W/m2
20:23 59.4 °F 54.9 °F 30.1 in NW 2.9 mph 11 mph 85% 0 in 11 W/m2
20:28 59.4 °F 54.9 °F 30.1 in WSW 4.9 mph 6 mph 85% 0 in 5 W/m2
20:33 59.2 °F 54.7 °F 30.1 in WSW 8.1 mph 10 mph 85% 0 in 5 W/m2
20:38 59 °F 54.5 °F 30.1 in WNW 2 mph 7 mph 85% 0 in 5 W/m2
20:43 58.8 °F 54.7 °F 30.1 in West 4 mph 10 mph 86% 0 in 0 W/m2
20:48 58.8 °F 54.7 °F 30.1 in WNW 2 mph 4 mph 86% 0 in 0 W/m2
20:53 58.8 °F 54.7 °F 30.1 in West 4 mph 5 mph 86% 0 in 0 W/m2
20:58 58.8 °F 54.7 °F 30.1 in WNW 4.9 mph 5 mph 86% 0 in 0 W/m2
21:03 58.6 °F 54.5 °F 30.1 in WNW 6.9 mph 7 mph 86% 0 in 0 W/m2
21:08 58.6 °F 54.5 °F 30.1 in West 2.9 mph 7 mph 86% 0 in 0 W/m2
21:13 58.6 °F 54.5 °F 30.1 in West 4 mph 11 mph 86% 0 in 0 W/m2
21:18 58.6 °F 54.5 °F 30.1 in WNW 6.9 mph 8 mph 86% 0 in 0 W/m2
21:23 58.6 °F 54.9 °F 30.1 in WNW 4 mph 9 mph 87% 0 in 0 W/m2
21:28 58.3 °F 54.5 °F 30.1 in WSW 2 mph 8 mph 87% 0 in 0 W/m2
21:33 58.1 °F 54.5 °F 30.1 in West 2 mph 9 mph 88% 0 in 0 W/m2
21:38 57.9 °F 54.7 °F 30.1 in WNW 4.9 mph 8 mph 89% 0 in 0 W/m2
21:43 57.7 °F 54.9 °F 30.1 in WSW 4 mph 8 mph 90% 0 in 0 W/m2
21:48 57.6 °F 54.7 °F 30.1 in WSW 2 mph 6 mph 90% 0 in 0 W/m2
21:53 57.6 °F 55 °F 30.1 in WNW 4 mph 7 mph 91% 0 in 0 W/m2
21:58 57.4 °F 54.9 °F 30.1 in West 4 mph 9 mph 91% 0 in 0 W/m2
22:03 57.4 °F 54.9 °F 30.1 in WSW 4 mph 4 mph 91% 0.01 in 0 W/m2
22:13 57.2 °F 54.9 °F 30.1 in WNW 2.9 mph 4 mph 92% 0.01 in 0 W/m2
22:18 57 °F 54.7 °F 30.1 in WNW 2 mph 11 mph 92% 0.01 in 0 W/m2
22:23 57 °F 54.7 °F 30.1 in WNW 6.9 mph 7 mph 92% 0.01 in 0 W/m2
22:28 57 °F 55 °F 30.1 in West 4 mph 4 mph 93% 0.02 in 0 W/m2
22:33 57 °F 55 °F 30.1 in NW 4 mph 4 mph 93% 0.02 in 0 W/m2
22:38 57 °F 55 °F 30.1 in WSW 6.9 mph 7 mph 93% 0.02 in 0 W/m2
22:43 57 °F 55 °F 30.1 in WNW 4.9 mph 7 mph 93% 0.02 in 0 W/m2
22:48 57 °F 55 °F 30.1 in WNW 2 mph 7 mph 93% 0.02 in 0 W/m2
22:53 57 °F 55 °F 30.1 in Calm   4 mph 93% 0.02 in 0 W/m2
22:58 57 °F 55 °F 30.1 in NW 4.9 mph 12 mph 93% 0.02 in 0 W/m2
23:03 57 °F 55 °F 30.1 in WSW 2.9 mph 8 mph 93% 0.01 in 0 W/m2
23:08 57 °F 55 °F 30.1 in West 2.9 mph 8 mph 93% 0.02 in 0 W/m2
23:13 57 °F 55 °F 30.1 in NNW 4.9 mph 8 mph 93% 0.02 in 0 W/m2
23:18 57 °F 55 °F 30.1 in West 4 mph 6 mph 93% 0.02 in 0 W/m2
23:23 57 °F 55 °F 30.1 in West 6 mph 9 mph 93% 0.02 in 0 W/m2
23:28 57 °F 55 °F 30.1 in WNW 2 mph 7 mph 93% 0.01 in 0 W/m2
23:33 57 °F 55 °F 30.1 in West 2.9 mph 9 mph 93% 0.01 in 0 W/m2
23:38 57 °F 55 °F 30.1 in West 6.9 mph 7 mph 93% 0.01 in 0 W/m2
23:43 57 °F 55 °F 30.1 in NW 2.9 mph 3 mph 93% 0.01 in 0 W/m2
23:48 57 °F 55 °F 30.1 in WNW 2 mph 3 mph 93% 0.01 in 0 W/m2
23:53 57 °F 55 °F 30.1 in WNW 4 mph 6 mph 93% 0.01 in 0 W/m2
23:58 57.2 °F 55.2 °F 30.1 in West 2.9 mph 4 mph 93% 0.01 in 0 W/m2
Juneau County Weather
Compliments of Weather Underground - 4 mb